sensor_id;sensor_type;location;lat;lon;timestamp;temperature;humidity
45849;DHT22;31567;54.600;9.842;2024-01-16T00:00:50;-1.40;99.90
45849;DHT22;31567;54.600;9.842;2024-01-16T00:04:29;-1.40;99.90
45849;DHT22;31567;54.600;9.842;2024-01-16T00:08:10;-1.40;99.90
45849;DHT22;31567;54.600;9.842;2024-01-16T00:11:49;-1.30;99.90
45849;DHT22;31567;54.600;9.842;2024-01-16T00:15:29;-1.30;99.90
45849;DHT22;31567;54.600;9.842;2024-01-16T00:19:10;-1.20;99.90
45849;DHT22;31567;54.600;9.842;2024-01-16T00:22:50;-1.20;99.90
45849;DHT22;31567;54.600;9.842;2024-01-16T00:26:29;-1.20;99.90
45849;DHT22;31567;54.600;9.842;2024-01-16T00:30:09;-1.10;99.90
45849;DHT22;31567;54.600;9.842;2024-01-16T00:33:49;-1.00;99.90
45849;DHT22;31567;54.600;9.842;2024-01-16T00:37:28;-1.00;99.90
45849;DHT22;31567;54.600;9.842;2024-01-16T00:41:08;-0.90;99.90
45849;DHT22;31567;54.600;9.842;2024-01-16T00:44:47;-0.90;99.90
45849;DHT22;31567;54.600;9.842;2024-01-16T00:48:27;-0.90;99.90
45849;DHT22;31567;54.600;9.842;2024-01-16T00:52:06;-0.90;99.90
45849;DHT22;31567;54.600;9.842;2024-01-16T00:55:46;-0.80;99.90
45849;DHT22;31567;54.600;9.842;2024-01-16T00:59:26;-0.80;99.90
45849;DHT22;31567;54.600;9.842;2024-01-16T01:03:06;-0.80;99.90
45849;DHT22;31567;54.600;9.842;2024-01-16T01:06:45;-0.90;99.90
45849;DHT22;31567;54.600;9.842;2024-01-16T01:10:25;-0.80;99.90
45849;DHT22;31567;54.600;9.842;2024-01-16T01:14:04;-0.80;99.90
45849;DHT22;31567;54.600;9.842;2024-01-16T01:17:44;-0.80;99.90
45849;DHT22;31567;54.600;9.842;2024-01-16T01:21:23;-0.80;99.90
45849;DHT22;31567;54.600;9.842;2024-01-16T01:25:03;-0.70;99.90
45849;DHT22;31567;54.600;9.842;2024-01-16T01:28:44;-0.70;99.90
45849;DHT22;31567;54.600;9.842;2024-01-16T01:32:23;-0.70;99.90
45849;DHT22;31567;54.600;9.842;2024-01-16T01:36:03;-0.70;99.90
45849;DHT22;31567;54.600;9.842;2024-01-16T01:39:43;-0.60;99.90
45849;DHT22;31567;54.600;9.842;2024-01-16T01:43:24;-0.60;99.90
45849;DHT22;31567;54.600;9.842;2024-01-16T01:47:04;-0.50;99.90
45849;DHT22;31567;54.600;9.842;2024-01-16T01:50:44;-0.50;99.90
45849;DHT22;31567;54.600;9.842;2024-01-16T01:54:24;-0.40;99.90
45849;DHT22;31567;54.600;9.842;2024-01-16T01:58:05;-0.40;99.90
45849;DHT22;31567;54.600;9.842;2024-01-16T02:01:46;-0.30;99.90
45849;DHT22;31567;54.600;9.842;2024-01-16T02:05:27;-0.30;99.90
45849;DHT22;31567;54.600;9.842;2024-01-16T02:09:07;-0.30;99.90
45849;DHT22;31567;54.600;9.842;2024-01-16T02:12:46;-0.40;99.90
45849;DHT22;31567;54.600;9.842;2024-01-16T02:16:26;-0.30;99.90
45849;DHT22;31567;54.600;9.842;2024-01-16T02:20:06;-0.30;99.90
45849;DHT22;31567;54.600;9.842;2024-01-16T02:23:46;-0.20;99.90
45849;DHT22;31567;54.600;9.842;2024-01-16T02:27:26;-0.30;99.90
45849;DHT22;31567;54.600;9.842;2024-01-16T02:31:07;-0.20;99.90
45849;DHT22;31567;54.600;9.842;2024-01-16T02:34:47;-0.20;99.90
45849;DHT22;31567;54.600;9.842;2024-01-16T02:38:27;-0.30;99.90
45849;DHT22;31567;54.600;9.842;2024-01-16T02:42:06;-0.30;99.90
45849;DHT22;31567;54.600;9.842;2024-01-16T02:45:46;-0.40;99.90
45849;DHT22;31567;54.600;9.842;2024-01-16T02:49:25;-0.40;99.90
45849;DHT22;31567;54.600;9.842;2024-01-16T02:53:05;-0.30;99.90
45849;DHT22;31567;54.600;9.842;2024-01-16T02:56:44;-0.40;99.90
45849;DHT22;31567;54.600;9.842;2024-01-16T03:00:24;-0.40;99.90
45849;DHT22;31567;54.600;9.842;2024-01-16T03:04:04;-0.40;99.90
45849;DHT22;31567;54.600;9.842;2024-01-16T03:07:43;-0.40;99.90
45849;DHT22;31567;54.600;9.842;2024-01-16T03:11:23;-0.40;99.90
45849;DHT22;31567;54.600;9.842;2024-01-16T03:15:02;-0.40;99.90
45849;DHT22;31567;54.600;9.842;2024-01-16T03:18:42;-0.40;99.90
45849;DHT22;31567;54.600;9.842;2024-01-16T03:22:22;-0.40;99.90
45849;DHT22;31567;54.600;9.842;2024-01-16T03:26:02;-0.40;99.90
45849;DHT22;31567;54.600;9.842;2024-01-16T03:29:42;-0.50;99.90
45849;DHT22;31567;54.600;9.842;2024-01-16T03:33:22;-0.50;99.90
45849;DHT22;31567;54.600;9.842;2024-01-16T03:37:02;-0.50;99.90
45849;DHT22;31567;54.600;9.842;2024-01-16T03:40:41;-0.50;99.90
45849;DHT22;31567;54.600;9.842;2024-01-16T03:44:21;-0.50;99.90
45849;DHT22;31567;54.600;9.842;2024-01-16T03:48:01;-0.50;99.90
45849;DHT22;31567;54.600;9.842;2024-01-16T03:51:42;-0.40;99.90
45849;DHT22;31567;54.600;9.842;2024-01-16T03:55:25;-0.40;99.90
45849;DHT22;31567;54.600;9.842;2024-01-16T03:59:05;-0.40;99.90
45849;DHT22;31567;54.600;9.842;2024-01-16T04:02:44;-0.30;99.90
45849;DHT22;31567;54.600;9.842;2024-01-16T04:06:24;-0.30;99.90
45849;DHT22;31567;54.600;9.842;2024-01-16T04:10:03;-0.30;99.90
45849;DHT22;31567;54.600;9.842;2024-01-16T04:13:45;-0.30;99.90
45849;DHT22;31567;54.600;9.842;2024-01-16T04:17:24;-0.30;99.90
45849;DHT22;31567;54.600;9.842;2024-01-16T04:21:04;-0.30;99.90
45849;DHT22;31567;54.600;9.842;2024-01-16T04:24:43;-0.30;99.90
45849;DHT22;31567;54.600;9.842;2024-01-16T04:28:23;-0.20;99.90
45849;DHT22;31567;54.600;9.842;2024-01-16T04:32:03;-0.20;99.90
45849;DHT22;31567;54.600;9.842;2024-01-16T04:35:43;-0.20;99.90
45849;DHT22;31567;54.600;9.842;2024-01-16T04:39:23;-0.20;99.90
45849;DHT22;31567;54.600;9.842;2024-01-16T04:43:03;-0.20;99.90
45849;DHT22;31567;54.600;9.842;2024-01-16T04:46:42;-0.10;99.90
45849;DHT22;31567;54.600;9.842;2024-01-16T04:50:22;-0.20;99.90
45849;DHT22;31567;54.600;9.842;2024-01-16T04:54:02;-0.10;99.90
45849;DHT22;31567;54.600;9.842;2024-01-16T04:57:41;-0.10;99.90
45849;DHT22;31567;54.600;9.842;2024-01-16T05:01:21;-0.10;99.90
45849;DHT22;31567;54.600;9.842;2024-01-16T05:05:00;-0.10;99.90
45849;DHT22;31567;54.600;9.842;2024-01-16T05:08:41;-0.10;99.90
45849;DHT22;31567;54.600;9.842;2024-01-16T05:12:20;0.00;99.90
45849;DHT22;31567;54.600;9.842;2024-01-16T05:16:02;0.00;99.90
45849;DHT22;31567;54.600;9.842;2024-01-16T05:19:41;0.00;99.90
45849;DHT22;31567;54.600;9.842;2024-01-16T05:23:21;0.00;99.90
45849;DHT22;31567;54.600;9.842;2024-01-16T05:27:00;0.00;99.90
45849;DHT22;31567;54.600;9.842;2024-01-16T05:30:40;0.00;99.90
45849;DHT22;31567;54.600;9.842;2024-01-16T05:34:19;0.00;99.90
45849;DHT22;31567;54.600;9.842;2024-01-16T05:37:59;0.10;99.90
45849;DHT22;31567;54.600;9.842;2024-01-16T05:41:38;0.20;99.90
45849;DHT22;31567;54.600;9.842;2024-01-16T05:45:18;0.20;99.90
45849;DHT22;31567;54.600;9.842;2024-01-16T05:48:57;0.30;99.90
45849;DHT22;31567;54.600;9.842;2024-01-16T05:52:37;0.20;99.90
45849;DHT22;31567;54.600;9.842;2024-01-16T05:56:16;0.30;99.90
45849;DHT22;31567;54.600;9.842;2024-01-16T05:59:56;0.40;99.90
45849;DHT22;31567;54.600;9.842;2024-01-16T06:03:36;0.30;99.90
45849;DHT22;31567;54.600;9.842;2024-01-16T06:07:15;0.20;99.90
45849;DHT22;31567;54.600;9.842;2024-01-16T06:10:55;0.30;99.90
45849;DHT22;31567;54.600;9.842;2024-01-16T06:14:34;0.30;99.90
45849;DHT22;31567;54.600;9.842;2024-01-16T06:18:14;0.40;99.90
45849;DHT22;31567;54.600;9.842;2024-01-16T06:21:53;0.40;99.90
45849;DHT22;31567;54.600;9.842;2024-01-16T06:25:33;0.30;99.90
45849;DHT22;31567;54.600;9.842;2024-01-16T06:29:12;0.20;99.90
45849;DHT22;31567;54.600;9.842;2024-01-16T06:32:52;0.20;99.90
45849;DHT22;31567;54.600;9.842;2024-01-16T06:36:31;0.20;99.90
45849;DHT22;31567;54.600;9.842;2024-01-16T06:40:12;0.20;99.90
45849;DHT22;31567;54.600;9.842;2024-01-16T06:43:52;0.20;99.90
45849;DHT22;31567;54.600;9.842;2024-01-16T06:47:31;0.40;99.90
45849;DHT22;31567;54.600;9.842;2024-01-16T06:51:12;0.50;99.90
45849;DHT22;31567;54.600;9.842;2024-01-16T06:54:53;0.60;99.90
45849;DHT22;31567;54.600;9.842;2024-01-16T06:58:32;0.60;99.90
45849;DHT22;31567;54.600;9.842;2024-01-16T07:02:12;0.70;99.90
45849;DHT22;31567;54.600;9.842;2024-01-16T07:05:51;0.70;99.90
45849;DHT22;31567;54.600;9.842;2024-01-16T07:09:31;0.70;99.90
45849;DHT22;31567;54.600;9.842;2024-01-16T07:13:11;0.60;99.90
45849;DHT22;31567;54.600;9.842;2024-01-16T07:16:51;0.60;99.90
45849;DHT22;31567;54.600;9.842;2024-01-16T07:20:31;0.60;99.90
45849;DHT22;31567;54.600;9.842;2024-01-16T07:24:10;0.60;99.90
45849;DHT22;31567;54.600;9.842;2024-01-16T07:27:50;0.60;99.90
45849;DHT22;31567;54.600;9.842;2024-01-16T07:31:29;0.60;99.90
45849;DHT22;31567;54.600;9.842;2024-01-16T07:35:09;0.70;99.90
45849;DHT22;31567;54.600;9.842;2024-01-16T07:38:49;0.70;99.90
45849;DHT22;31567;54.600;9.842;2024-01-16T07:42:28;0.70;99.90
45849;DHT22;31567;54.600;9.842;2024-01-16T07:46:13;0.80;99.90
45849;DHT22;31567;54.600;9.842;2024-01-16T07:49:52;0.80;99.90
45849;DHT22;31567;54.600;9.842;2024-01-16T07:53:32;0.80;99.90
45849;DHT22;31567;54.600;9.842;2024-01-16T07:57:12;0.70;99.90
45849;DHT22;31567;54.600;9.842;2024-01-16T08:00:51;0.80;99.90
45849;DHT22;31567;54.600;9.842;2024-01-16T08:04:31;0.80;99.90
45849;DHT22;31567;54.600;9.842;2024-01-16T08:08:10;0.70;99.90
45849;DHT22;31567;54.600;9.842;2024-01-16T08:11:50;0.80;99.90
45849;DHT22;31567;54.600;9.842;2024-01-16T08:15:29;0.70;99.90
45849;DHT22;31567;54.600;9.842;2024-01-16T08:19:09;0.80;99.90
45849;DHT22;31567;54.600;9.842;2024-01-16T08:22:49;0.80;99.90
45849;DHT22;31567;54.600;9.842;2024-01-16T08:26:29;0.80;99.90
45849;DHT22;31567;54.600;9.842;2024-01-16T08:30:09;0.80;99.90
45849;DHT22;31567;54.600;9.842;2024-01-16T08:33:50;0.80;99.90
45849;DHT22;31567;54.600;9.842;2024-01-16T08:37:30;0.80;99.90
45849;DHT22;31567;54.600;9.842;2024-01-16T08:41:09;0.90;99.90
45849;DHT22;31567;54.600;9.842;2024-01-16T08:44:49;0.90;99.90
45849;DHT22;31567;54.600;9.842;2024-01-16T08:48:29;1.00;99.90
45849;DHT22;31567;54.600;9.842;2024-01-16T08:52:08;1.10;99.90
45849;DHT22;31567;54.600;9.842;2024-01-16T08:55:48;1.20;99.90
45849;DHT22;31567;54.600;9.842;2024-01-16T08:59:27;1.20;99.90
45849;DHT22;31567;54.600;9.842;2024-01-16T09:03:07;1.30;99.90
45849;DHT22;31567;54.600;9.842;2024-01-16T09:06:47;1.40;99.90
45849;DHT22;31567;54.600;9.842;2024-01-16T09:10:26;1.40;99.90
45849;DHT22;31567;54.600;9.842;2024-01-16T09:14:06;1.40;99.90
45849;DHT22;31567;54.600;9.842;2024-01-16T09:17:45;1.50;99.90
45849;DHT22;31567;54.600;9.842;2024-01-16T09:21:26;1.60;99.90
45849;DHT22;31567;54.600;9.842;2024-01-16T09:25:06;1.60;99.90
45849;DHT22;31567;54.600;9.842;2024-01-16T09:28:45;1.60;99.90
45849;DHT22;31567;54.600;9.842;2024-01-16T09:32:25;1.70;99.90
45849;DHT22;31567;54.600;9.842;2024-01-16T09:36:04;1.70;99.90
45849;DHT22;31567;54.600;9.842;2024-01-16T09:39:44;1.80;99.90
45849;DHT22;31567;54.600;9.842;2024-01-16T09:43:28;1.90;99.90
45849;DHT22;31567;54.600;9.842;2024-01-16T09:47:10;1.90;99.90
45849;DHT22;31567;54.600;9.842;2024-01-16T09:50:50;2.00;99.90
45849;DHT22;31567;54.600;9.842;2024-01-16T09:54:30;2.10;99.90
45849;DHT22;31567;54.600;9.842;2024-01-16T09:58:10;2.20;99.90
45849;DHT22;31567;54.600;9.842;2024-01-16T10:01:54;2.30;99.90
45849;DHT22;31567;54.600;9.842;2024-01-16T10:05:35;2.40;99.90
45849;DHT22;31567;54.600;9.842;2024-01-16T10:09:15;2.40;99.90
45849;DHT22;31567;54.600;9.842;2024-01-16T10:12:55;2.40;99.90
45849;DHT22;31567;54.600;9.842;2024-01-16T10:16:54;2.50;99.90
45849;DHT22;31567;54.600;9.842;2024-01-16T10:20:34;2.60;99.90
45849;DHT22;31567;54.600;9.842;2024-01-16T10:24:14;2.60;99.90
45849;DHT22;31567;54.600;9.842;2024-01-16T10:28:04;2.70;99.90
45849;DHT22;31567;54.600;9.842;2024-01-16T10:31:44;2.60;99.90
45849;DHT22;31567;54.600;9.842;2024-01-16T10:35:24;2.70;99.90
45849;DHT22;31567;54.600;9.842;2024-01-16T10:39:03;2.70;99.90
45849;DHT22;31567;54.600;9.842;2024-01-16T10:42:45;2.60;99.90
45849;DHT22;31567;54.600;9.842;2024-01-16T10:46:25;2.70;99.90
45849;DHT22;31567;54.600;9.842;2024-01-16T10:50:05;2.80;99.90
45849;DHT22;31567;54.600;9.842;2024-01-16T10:53:47;2.80;99.90
45849;DHT22;31567;54.600;9.842;2024-01-16T10:57:31;2.90;99.90
45849;DHT22;31567;54.600;9.842;2024-01-16T11:01:15;3.00;99.90
45849;DHT22;31567;54.600;9.842;2024-01-16T11:04:55;3.10;99.90
45849;DHT22;31567;54.600;9.842;2024-01-16T11:08:37;3.20;99.90
45849;DHT22;31567;54.600;9.842;2024-01-16T11:12:17;3.40;99.90
45849;DHT22;31567;54.600;9.842;2024-01-16T11:15:59;3.50;99.90
45849;DHT22;31567;54.600;9.842;2024-01-16T11:19:39;3.70;99.90
45849;DHT22;31567;54.600;9.842;2024-01-16T11:23:18;3.70;99.90
45849;DHT22;31567;54.600;9.842;2024-01-16T11:26:58;3.60;99.90
45849;DHT22;31567;54.600;9.842;2024-01-16T11:30:38;3.50;99.80
45849;DHT22;31567;54.600;9.842;2024-01-16T11:38:20;3.60;99.90
45849;DHT22;31567;54.600;9.842;2024-01-16T11:42:01;3.60;99.90
45849;DHT22;31567;54.600;9.842;2024-01-16T11:49:23;3.70;99.90
45849;DHT22;31567;54.600;9.842;2024-01-16T11:53:02;3.80;99.90
45849;DHT22;31567;54.600;9.842;2024-01-16T12:01:05;3.90;99.90
45849;DHT22;31567;54.600;9.842;2024-01-16T12:04:55;3.70;99.50
45849;DHT22;31567;54.600;9.842;2024-01-16T12:08:42;3.60;99.70
45849;DHT22;31567;54.600;9.842;2024-01-16T12:12:22;3.50;99.50
45849;DHT22;31567;54.600;9.842;2024-01-16T12:16:03;3.50;99.70
45849;DHT22;31567;54.600;9.842;2024-01-16T12:19:45;3.50;99.90
45849;DHT22;31567;54.600;9.842;2024-01-16T12:23:25;3.50;99.80
45849;DHT22;31567;54.600;9.842;2024-01-16T12:27:05;3.50;99.80
45849;DHT22;31567;54.600;9.842;2024-01-16T12:30:49;3.40;99.80
45849;DHT22;31567;54.600;9.842;2024-01-16T12:34:30;3.40;99.90
45849;DHT22;31567;54.600;9.842;2024-01-16T12:38:11;3.40;99.80
45849;DHT22;31567;54.600;9.842;2024-01-16T12:41:51;3.40;99.90
45849;DHT22;31567;54.600;9.842;2024-01-16T12:45:31;3.20;99.80
45849;DHT22;31567;54.600;9.842;2024-01-16T12:49:11;3.20;99.90
45849;DHT22;31567;54.600;9.842;2024-01-16T12:53:07;3.00;99.90
45849;DHT22;31567;54.600;9.842;2024-01-16T12:56:47;3.00;99.90
45849;DHT22;31567;54.600;9.842;2024-01-16T13:00:27;3.10;99.90
45849;DHT22;31567;54.600;9.842;2024-01-16T13:04:07;3.00;99.90
45849;DHT22;31567;54.600;9.842;2024-01-16T13:07:59;2.90;99.90
45849;DHT22;31567;54.600;9.842;2024-01-16T13:11:50;2.90;99.90
45849;DHT22;31567;54.600;9.842;2024-01-16T13:15:30;2.80;99.90
45849;DHT22;31567;54.600;9.842;2024-01-16T13:19:10;2.70;99.90
45849;DHT22;31567;54.600;9.842;2024-01-16T13:22:50;2.70;99.90
45849;DHT22;31567;54.600;9.842;2024-01-16T13:26:30;2.70;99.90
45849;DHT22;31567;54.600;9.842;2024-01-16T13:30:09;2.70;99.90
45849;DHT22;31567;54.600;9.842;2024-01-16T13:33:49;2.80;99.90
45849;DHT22;31567;54.600;9.842;2024-01-16T13:37:29;2.90;99.90
45849;DHT22;31567;54.600;9.842;2024-01-16T13:41:08;2.80;99.90
45849;DHT22;31567;54.600;9.842;2024-01-16T13:44:48;2.80;99.90
45849;DHT22;31567;54.600;9.842;2024-01-16T13:48:28;2.80;99.90
45849;DHT22;31567;54.600;9.842;2024-01-16T13:52:07;2.80;99.90
45849;DHT22;31567;54.600;9.842;2024-01-16T13:55:47;2.80;99.90
45849;DHT22;31567;54.600;9.842;2024-01-16T13:59:26;2.80;99.90
45849;DHT22;31567;54.600;9.842;2024-01-16T14:03:06;2.80;99.90
45849;DHT22;31567;54.600;9.842;2024-01-16T14:06:45;2.90;99.90
45849;DHT22;31567;54.600;9.842;2024-01-16T14:10:25;3.00;99.90
45849;DHT22;31567;54.600;9.842;2024-01-16T14:14:05;3.00;99.90
45849;DHT22;31567;54.600;9.842;2024-01-16T14:17:46;3.00;99.90
45849;DHT22;31567;54.600;9.842;2024-01-16T14:21:26;3.10;99.90
45849;DHT22;31567;54.600;9.842;2024-01-16T14:25:10;3.10;99.90
45849;DHT22;31567;54.600;9.842;2024-01-16T14:28:50;3.00;99.90
45849;DHT22;31567;54.600;9.842;2024-01-16T14:32:29;2.90;99.90
45849;DHT22;31567;54.600;9.842;2024-01-16T14:36:09;2.70;99.90
45849;DHT22;31567;54.600;9.842;2024-01-16T14:39:48;2.60;99.90
45849;DHT22;31567;54.600;9.842;2024-01-16T14:43:28;2.60;99.90
45849;DHT22;31567;54.600;9.842;2024-01-16T14:47:08;2.60;99.90
45849;DHT22;31567;54.600;9.842;2024-01-16T14:50:48;2.60;99.90
45849;DHT22;31567;54.600;9.842;2024-01-16T14:54:28;2.60;99.90
45849;DHT22;31567;54.600;9.842;2024-01-16T14:58:08;2.60;99.90
45849;DHT22;31567;54.600;9.842;2024-01-16T15:01:48;2.60;99.90
45849;DHT22;31567;54.600;9.842;2024-01-16T15:05:27;2.50;99.90
45849;DHT22;31567;54.600;9.842;2024-01-16T15:09:07;2.50;99.90
45849;DHT22;31567;54.600;9.842;2024-01-16T15:12:49;2.50;99.90
45849;DHT22;31567;54.600;9.842;2024-01-16T15:16:30;2.50;99.90
45849;DHT22;31567;54.600;9.842;2024-01-16T15:20:10;2.50;99.90
45849;DHT22;31567;54.600;9.842;2024-01-16T15:23:50;2.60;99.90
45849;DHT22;31567;54.600;9.842;2024-01-16T15:27:30;2.60;99.90
45849;DHT22;31567;54.600;9.842;2024-01-16T15:31:10;2.60;99.90
45849;DHT22;31567;54.600;9.842;2024-01-16T15:34:49;2.70;99.90
45849;DHT22;31567;54.600;9.842;2024-01-16T15:38:29;2.70;99.90
45849;DHT22;31567;54.600;9.842;2024-01-16T15:42:08;2.70;99.90
45849;DHT22;31567;54.600;9.842;2024-01-16T15:45:48;2.70;99.90
45849;DHT22;31567;54.600;9.842;2024-01-16T15:49:29;2.70;99.90
45849;DHT22;31567;54.600;9.842;2024-01-16T15:53:10;2.70;99.90
45849;DHT22;31567;54.600;9.842;2024-01-16T15:56:51;2.80;99.90
45849;DHT22;31567;54.600;9.842;2024-01-16T16:00:30;2.80;99.90
45849;DHT22;31567;54.600;9.842;2024-01-16T16:04:10;2.80;99.90
45849;DHT22;31567;54.600;9.842;2024-01-16T16:07:50;2.90;99.90
45849;DHT22;31567;54.600;9.842;2024-01-16T16:11:39;2.90;99.90
45849;DHT22;31567;54.600;9.842;2024-01-16T16:15:23;3.00;99.90
45849;DHT22;31567;54.600;9.842;2024-01-16T16:19:03;3.00;99.90
45849;DHT22;31567;54.600;9.842;2024-01-16T16:22:43;3.00;99.90
45849;DHT22;31567;54.600;9.842;2024-01-16T16:26:33;3.00;99.90
45849;DHT22;31567;54.600;9.842;2024-01-16T16:30:13;3.00;99.90
45849;DHT22;31567;54.600;9.842;2024-01-16T16:33:53;3.00;99.90
45849;DHT22;31567;54.600;9.842;2024-01-16T16:37:32;3.00;99.90
45849;DHT22;31567;54.600;9.842;2024-01-16T16:41:13;3.00;99.90
45849;DHT22;31567;54.600;9.842;2024-01-16T16:44:53;3.00;99.90
45849;DHT22;31567;54.600;9.842;2024-01-16T16:48:34;3.00;99.90
45849;DHT22;31567;54.600;9.842;2024-01-16T16:52:13;2.90;99.90
45849;DHT22;31567;54.600;9.842;2024-01-16T16:55:53;2.90;99.90
45849;DHT22;31567;54.600;9.842;2024-01-16T16:59:32;3.00;99.90
45849;DHT22;31567;54.600;9.842;2024-01-16T17:03:12;2.90;99.90
45849;DHT22;31567;54.600;9.842;2024-01-16T17:06:51;2.90;99.90
45849;DHT22;31567;54.600;9.842;2024-01-16T17:10:33;2.80;99.90
45849;DHT22;31567;54.600;9.842;2024-01-16T17:14:13;2.80;99.90
45849;DHT22;31567;54.600;9.842;2024-01-16T17:17:53;2.80;99.90
45849;DHT22;31567;54.600;9.842;2024-01-16T17:21:33;2.70;99.90
45849;DHT22;31567;54.600;9.842;2024-01-16T17:25:12;2.70;99.90
45849;DHT22;31567;54.600;9.842;2024-01-16T17:28:52;2.70;99.90
45849;DHT22;31567;54.600;9.842;2024-01-16T17:32:31;2.60;99.90
45849;DHT22;31567;54.600;9.842;2024-01-16T17:36:11;2.50;99.90
45849;DHT22;31567;54.600;9.842;2024-01-16T17:39:52;2.50;99.90
45849;DHT22;31567;54.600;9.842;2024-01-16T17:43:31;2.40;99.90
45849;DHT22;31567;54.600;9.842;2024-01-16T17:47:11;2.40;99.90
45849;DHT22;31567;54.600;9.842;2024-01-16T17:50:50;2.40;99.90
45849;DHT22;31567;54.600;9.842;2024-01-16T17:54:31;2.40;99.90
45849;DHT22;31567;54.600;9.842;2024-01-16T17:58:10;2.40;99.90
45849;DHT22;31567;54.600;9.842;2024-01-16T18:01:50;2.40;99.90
45849;DHT22;31567;54.600;9.842;2024-01-16T18:05:30;2.40;99.90
45849;DHT22;31567;54.600;9.842;2024-01-16T18:09:09;2.40;99.90
45849;DHT22;31567;54.600;9.842;2024-01-16T18:12:49;2.40;99.90
45849;DHT22;31567;54.600;9.842;2024-01-16T18:16:29;2.30;99.90
45849;DHT22;31567;54.600;9.842;2024-01-16T18:20:09;2.30;99.90
45849;DHT22;31567;54.600;9.842;2024-01-16T18:23:51;2.30;99.90
45849;DHT22;31567;54.600;9.842;2024-01-16T18:27:30;2.30;99.90
45849;DHT22;31567;54.600;9.842;2024-01-16T18:31:11;2.40;99.90
45849;DHT22;31567;54.600;9.842;2024-01-16T18:34:52;2.30;99.90
45849;DHT22;31567;54.600;9.842;2024-01-16T18:38:31;2.30;99.90
45849;DHT22;31567;54.600;9.842;2024-01-16T18:42:11;2.30;99.90
45849;DHT22;31567;54.600;9.842;2024-01-16T18:45:50;2.20;99.90
45849;DHT22;31567;54.600;9.842;2024-01-16T18:49:30;2.30;99.90
45849;DHT22;31567;54.600;9.842;2024-01-16T18:53:10;2.60;99.90
45849;DHT22;31567;54.600;9.842;2024-01-16T18:56:52;2.20;99.90
45849;DHT22;31567;54.600;9.842;2024-01-16T19:00:32;2.20;99.90
45849;DHT22;31567;54.600;9.842;2024-01-16T19:04:11;2.20;99.90
45849;DHT22;31567;54.600;9.842;2024-01-16T19:07:52;2.20;99.90
45849;DHT22;31567;54.600;9.842;2024-01-16T19:11:31;2.20;99.90
45849;DHT22;31567;54.600;9.842;2024-01-16T19:15:13;2.20;99.90
45849;DHT22;31567;54.600;9.842;2024-01-16T19:18:56;2.20;99.90
45849;DHT22;31567;54.600;9.842;2024-01-16T19:22:39;2.20;99.90
45849;DHT22;31567;54.600;9.842;2024-01-16T19:26:19;2.20;99.90
45849;DHT22;31567;54.600;9.842;2024-01-16T19:30:00;2.30;99.90
45849;DHT22;31567;54.600;9.842;2024-01-16T19:33:43;2.30;99.90
45849;DHT22;31567;54.600;9.842;2024-01-16T19:37:22;2.30;99.90
45849;DHT22;31567;54.600;9.842;2024-01-16T19:41:02;2.20;99.90
45849;DHT22;31567;54.600;9.842;2024-01-16T19:44:42;2.20;99.90
45849;DHT22;31567;54.600;9.842;2024-01-16T19:48:25;2.20;99.90
45849;DHT22;31567;54.600;9.842;2024-01-16T19:52:05;2.20;99.90
45849;DHT22;31567;54.600;9.842;2024-01-16T19:55:45;2.10;99.90
45849;DHT22;31567;54.600;9.842;2024-01-16T19:59:25;2.10;99.90
45849;DHT22;31567;54.600;9.842;2024-01-16T20:03:06;2.00;99.90
45849;DHT22;31567;54.600;9.842;2024-01-16T20:06:46;2.00;99.90
45849;DHT22;31567;54.600;9.842;2024-01-16T20:10:26;2.00;99.90
45849;DHT22;31567;54.600;9.842;2024-01-16T20:14:06;2.00;99.90
45849;DHT22;31567;54.600;9.842;2024-01-16T20:17:49;2.00;99.90
45849;DHT22;31567;54.600;9.842;2024-01-16T20:21:32;2.10;99.90
45849;DHT22;31567;54.600;9.842;2024-01-16T20:25:12;2.00;99.90
45849;DHT22;31567;54.600;9.842;2024-01-16T20:28:52;2.00;99.90
45849;DHT22;31567;54.600;9.842;2024-01-16T20:32:31;2.00;99.90
45849;DHT22;31567;54.600;9.842;2024-01-16T20:36:11;2.00;99.90
45849;DHT22;31567;54.600;9.842;2024-01-16T20:39:51;2.00;99.90
45849;DHT22;31567;54.600;9.842;2024-01-16T20:43:31;2.00;99.90
45849;DHT22;31567;54.600;9.842;2024-01-16T20:47:10;2.00;99.90
45849;DHT22;31567;54.600;9.842;2024-01-16T20:50:50;2.00;99.90
45849;DHT22;31567;54.600;9.842;2024-01-16T20:54:29;2.00;99.90
45849;DHT22;31567;54.600;9.842;2024-01-16T20:58:09;1.90;99.90
45849;DHT22;31567;54.600;9.842;2024-01-16T21:01:49;1.90;99.90
45849;DHT22;31567;54.600;9.842;2024-01-16T21:05:29;1.80;99.90
45849;DHT22;31567;54.600;9.842;2024-01-16T21:09:09;1.80;99.90
45849;DHT22;31567;54.600;9.842;2024-01-16T21:12:54;1.80;99.90
45849;DHT22;31567;54.600;9.842;2024-01-16T21:16:34;1.80;99.90
45849;DHT22;31567;54.600;9.842;2024-01-16T21:20:16;1.80;99.90
45849;DHT22;31567;54.600;9.842;2024-01-16T21:23:55;1.80;99.90
45849;DHT22;31567;54.600;9.842;2024-01-16T21:27:35;1.70;99.90
45849;DHT22;31567;54.600;9.842;2024-01-16T21:31:16;1.70;99.90
45849;DHT22;31567;54.600;9.842;2024-01-16T21:34:56;1.70;99.90
45849;DHT22;31567;54.600;9.842;2024-01-16T21:38:36;1.60;99.90
45849;DHT22;31567;54.600;9.842;2024-01-16T21:42:15;1.60;99.90
45849;DHT22;31567;54.600;9.842;2024-01-16T21:45:55;1.60;99.90
45849;DHT22;31567;54.600;9.842;2024-01-16T21:49:35;1.60;99.90
45849;DHT22;31567;54.600;9.842;2024-01-16T21:53:15;1.50;99.90
45849;DHT22;31567;54.600;9.842;2024-01-16T21:56:54;1.50;99.90
45849;DHT22;31567;54.600;9.842;2024-01-16T22:00:34;1.50;99.90
45849;DHT22;31567;54.600;9.842;2024-01-16T22:04:13;1.40;99.90
45849;DHT22;31567;54.600;9.842;2024-01-16T22:07:53;1.40;99.90
45849;DHT22;31567;54.600;9.842;2024-01-16T22:11:32;1.40;99.90
45849;DHT22;31567;54.600;9.842;2024-01-16T22:15:13;1.40;99.90
45849;DHT22;31567;54.600;9.842;2024-01-16T22:18:53;1.30;99.90
45849;DHT22;31567;54.600;9.842;2024-01-16T22:22:32;1.20;99.90
45849;DHT22;31567;54.600;9.842;2024-01-16T22:26:12;1.30;99.90
45849;DHT22;31567;54.600;9.842;2024-01-16T22:29:52;1.20;99.90
45849;DHT22;31567;54.600;9.842;2024-01-16T22:33:31;1.20;99.90
45849;DHT22;31567;54.600;9.842;2024-01-16T22:37:13;1.10;99.90
45849;DHT22;31567;54.600;9.842;2024-01-16T22:40:52;1.20;99.90
45849;DHT22;31567;54.600;9.842;2024-01-16T22:44:32;1.10;99.90
45849;DHT22;31567;54.600;9.842;2024-01-16T22:48:11;1.10;99.90
45849;DHT22;31567;54.600;9.842;2024-01-16T22:51:52;1.10;99.90
45849;DHT22;31567;54.600;9.842;2024-01-16T22:55:32;1.20;99.90
45849;DHT22;31567;54.600;9.842;2024-01-16T22:59:12;1.20;99.90
45849;DHT22;31567;54.600;9.842;2024-01-16T23:02:52;1.20;99.90
45849;DHT22;31567;54.600;9.842;2024-01-16T23:06:32;1.10;99.90
45849;DHT22;31567;54.600;9.842;2024-01-16T23:10:15;1.00;99.90
45849;DHT22;31567;54.600;9.842;2024-01-16T23:13:55;1.10;99.90
45849;DHT22;31567;54.600;9.842;2024-01-16T23:17:34;1.00;99.90
45849;DHT22;31567;54.600;9.842;2024-01-16T23:21:14;1.00;99.90
45849;DHT22;31567;54.600;9.842;2024-01-16T23:24:54;1.00;99.90
45849;DHT22;31567;54.600;9.842;2024-01-16T23:28:33;1.00;99.90
45849;DHT22;31567;54.600;9.842;2024-01-16T23:32:13;0.90;99.90
45849;DHT22;31567;54.600;9.842;2024-01-16T23:35:52;0.80;99.90
45849;DHT22;31567;54.600;9.842;2024-01-16T23:39:32;0.80;99.90